Terminal Aerodrome Forecast
Issued by NWS

Home | Current Version | Previous Version | Text Only | Print | Product List | Glossary On
Versions: 1 2 3 4 5 6 7 8 9 10 11 12 13 14 15 16
000
FTUS44 KBMX 210900 AAB
TAFANB
TAF AMD
KANB 210912Z 2109/2206 00000KT 4SM BR SKC
      TEMPO 2109/2112 1SM BR BKN002
     FM211300 31006KT P6SM SKC=

USA.gov is the U.S. government's official web portal to all federal, state and local government web resources and services.